Time;durP1;ratioP1;P1;durP2;ratioP2;P2;SDS_P1;SDS_P2;PMS_P1;PMS_P2;Temp;Humidity;BMP_temperature;BMP_pressure;BME280_temperature;BME280_humidity;BME280_pressure;Samples;Min_cycle;Max_cycle;Signal;HPM_P1;HPM_P2
2022/01/05 00:01:12;;;;;;;3.20;2.80;;;5.30;99.90;;;;;;4267244;28;10000513;-69
2022/01/05 00:03:38;;;;;;;3.58;3.15;;;5.30;99.90;;;;;;4961827;28;20034;-70
2022/01/05 00:06:03;;;;;;;2.85;2.55;;;5.30;99.90;;;;;;4957761;28;20196;-70
2022/01/05 00:08:29;;;;;;;3.55;2.92;;;5.30;99.90;;;;;;4959473;28;20047;-70
2022/01/05 00:10:55;;;;;;;3.75;2.80;;;5.30;99.90;;;;;;4964149;28;20074;-70
2022/01/05 00:13:21;;;;;;;3.22;2.85;;;5.30;99.90;;;;;;4956034;28;20109;-69
2022/01/05 00:15:47;;;;;;;3.50;3.00;;;5.30;99.90;;;;;;4961704;28;20027;-69
2022/01/05 00:18:13;;;;;;;6.15;4.00;;;5.30;99.90;;;;;;4956207;28;20049;-69
2022/01/05 00:20:38;;;;;;;5.65;4.13;;;5.30;99.90;;;;;;4956181;28;20035;-70
2022/01/05 00:23:04;;;;;;;7.90;4.82;;;5.30;99.90;;;;;;4955674;28;20034;-70
2022/01/05 00:25:30;;;;;;;7.72;4.57;;;5.20;99.90;;;;;;4954141;28;20019;-70
2022/01/05 00:27:55;;;;;;;6.18;4.07;;;5.30;99.90;;;;;;4949756;28;20055;-69
2022/01/05 00:30:21;;;;;;;5.57;3.30;;;5.20;99.90;;;;;;4954939;28;20037;-69
2022/01/05 00:32:47;;;;;;;6.65;3.35;;;5.10;99.90;;;;;;4953399;28;20033;-70
2022/01/05 00:35:12;;;;;;;5.80;2.60;;;5.10;99.90;;;;;;4964689;28;20498;-69
2022/01/05 00:37:38;;;;;;;7.20;2.63;;;5.00;99.90;;;;;;4960763;28;20114;-69
2022/01/05 00:40:06;;;;;;;6.35;3.15;;;4.90;99.90;;;;;;4958034;28;20484;-69
2022/01/05 00:42:32;;;;;;;5.57;2.40;;;4.90;99.90;;;;;;4965432;28;20288;-69
2022/01/05 00:44:58;;;;;;;4.90;2.10;;;5.00;99.90;;;;;;4970509;28;20105;-69
2022/01/05 00:47:23;;;;;;;3.22;1.75;;;4.90;99.90;;;;;;4957132;28;20034;-69
2022/01/05 00:49:49;;;;;;;5.18;1.63;;;4.80;99.90;;;;;;4963197;28;20271;-69
2022/01/05 00:52:15;;;;;;;8.05;1.35;;;4.70;99.90;;;;;;4954868;28;20361;-69
2022/01/05 00:54:41;;;;;;;8.85;1.50;;;4.80;99.90;;;;;;4962986;28;20082;-69
2022/01/05 00:57:07;;;;;;;6.03;1.40;;;4.70;99.90;;;;;;4959085;28;20043;-70
2022/01/05 00:59:33;;;;;;;4.38;1.23;;;4.70;99.90;;;;;;4960032;28;20026;-69
2022/01/05 01:01:58;;;;;;;4.70;1.20;;;4.80;99.90;;;;;;4963708;28;20033;-70
2022/01/05 01:04:24;;;;;;;8.43;1.60;;;4.90;99.90;;;;;;4965480;28;20044;-70
2022/01/05 01:06:50;;;;;;;3.60;1.30;;;4.90;99.90;;;;;;4966989;28;20035;-70
2022/01/05 01:09:15;;;;;;;5.47;1.08;;;4.80;99.90;;;;;;4966038;28;20047;-70
2022/01/05 01:11:41;;;;;;;8.40;1.38;;;4.70;99.90;;;;;;4968233;28;20286;-69
2022/01/05 01:14:07;;;;;;;8.23;1.55;;;4.70;99.90;;;;;;4971880;28;20423;-70
2022/01/05 01:16:32;;;;;;;6.72;1.83;;;4.70;99.90;;;;;;4966182;28;20503;-69
2022/01/05 01:18:58;;;;;;;6.07;2.15;;;4.60;99.90;;;;;;4967117;28;20028;-69
2022/01/05 01:21:24;;;;;;;11.13;1.83;;;4.50;99.90;;;;;;4961056;28;20239;-69
2022/01/05 01:23:55;;;;;;;5.80;2.05;;;4.50;99.90;;;;;;4958124;28;20027;-69
2022/01/05 01:26:29;;;;;;;10.43;2.75;;;4.50;99.90;;;;;;4972775;28;20043;-69
2022/01/05 01:28:55;;;;;;;6.55;2.15;;;4.50;99.90;;;;;;4961790;28;20048;-69
2022/01/05 01:31:21;;;;;;;7.00;2.10;;;4.40;99.90;;;;;;4967745;28;20057;-69
2022/01/05 01:33:47;;;;;;;11.10;2.55;;;4.40;99.90;;;;;;4963139;28;20275;-69
2022/01/05 01:36:13;;;;;;;11.55;2.78;;;4.30;99.90;;;;;;4964896;28;20032;-69
2022/01/05 01:38:39;;;;;;;11.50;2.67;;;4.30;99.90;;;;;;4968585;28;20046;-69
2022/01/05 01:41:04;;;;;;;9.68;3.08;;;4.20;99.90;;;;;;4967559;28;20352;-69
2022/01/05 01:43:31;;;;;;;11.43;2.85;;;4.20;99.90;;;;;;4963413;28;20081;-69
2022/01/05 01:45:56;;;;;;;7.30;2.95;;;4.20;99.90;;;;;;4965242;28;20194;-69
2022/01/05 01:48:22;;;;;;;10.60;2.90;;;4.20;99.90;;;;;;4961590;28;20027;-69
2022/01/05 01:50:47;;;;;;;6.00;2.65;;;4.20;99.90;;;;;;4966142;28;20058;-69
2022/01/05 01:53:13;;;;;;;8.45;2.60;;;4.20;99.90;;;;;;4963983;28;20056;-69
2022/01/05 01:55:39;;;;;;;9.80;2.42;;;4.20;99.90;;;;;;4962938;28;20504;-69
2022/01/05 01:58:06;;;;;;;6.97;2.35;;;4.20;99.90;;;;;;4959319;28;20122;-69
2022/01/05 02:00:32;;;;;;;6.93;1.95;;;4.20;99.90;;;;;;4957448;28;20031;-69
2022/01/05 02:02:58;;;;;;;9.77;2.15;;;4.20;99.90;;;;;;4958346;28;20031;-69
2022/01/05 02:05:24;;;;;;;9.70;2.38;;;4.10;99.90;;;;;;4963503;28;20027;-69
2022/01/05 02:07:50;;;;;;;7.47;1.95;;;4.10;99.90;;;;;;4959648;28;20053;-69
2022/01/05 02:10:16;;;;;;;5.90;2.10;;;4.10;99.90;;;;;;4964980;28;20034;-69
2022/01/05 02:12:43;;;;;;;8.57;2.00;;;4.00;99.90;;;;;;4960847;28;20159;-69
2022/01/05 02:15:10;;;;;;;7.50;1.90;;;4.00;99.90;;;;;;4956922;28;20065;-69
2022/01/05 02:17:52;;;;;;;5.63;2.05;;;3.90;99.90;;;;;;4966185;28;20085;-69
2022/01/05 02:20:21;;;;;;;5.53;1.92;;;3.90;99.90;;;;;;4964083;28;20027;-69
2022/01/05 02:22:47;;;;;;;4.32;1.90;;;3.90;99.90;;;;;;4965902;28;20027;-70
2022/01/05 02:25:13;;;;;;;5.88;1.90;;;3.70;99.90;;;;;;4957043;28;20435;-69
2022/01/05 02:27:44;;;;;;;6.97;2.17;;;3.70;99.90;;;;;;4968840;28;20042;-69
2022/01/05 02:30:12;;;;;;;7.18;1.67;;;3.70;99.90;;;;;;4963844;28;20030;-70
2022/01/05 02:32:37;;;;;;;7.75;1.65;;;3.70;99.90;;;;;;4974139;28;20286;-70
2022/01/05 02:35:05;;;;;;;3.17;1.25;;;3.70;99.90;;;;;;4967480;28;20042;-70
2022/01/05 02:37:30;;;;;;;5.32;1.75;;;3.60;99.90;;;;;;4974033;28;20082;-69
2022/01/05 02:39:56;;;;;;;5.13;1.58;;;3.50;99.90;;;;;;4965395;28;20031;-70
2022/01/05 02:42:27;;;;;;;5.93;1.60;;;3.50;99.90;;;;;;4960791;28;20031;-70
2022/01/05 02:44:53;;;;;;;3.35;1.40;;;3.40;99.90;;;;;;4962119;28;20026;-70
2022/01/05 02:47:19;;;;;;;5.93;1.50;;;;;;;;;;4966219;28;20419;-69
2022/01/05 02:49:45;;;;;;;5.75;1.40;;;;;;;;;;4965280;28;20027;-69
2022/01/05 02:52:11;;;;;;;2.70;1.40;;;;;;;;;;4968153;28;20027;-70
2022/01/05 02:54:37;;;;;;;3.25;1.35;;;;;;;;;;4964306;28;20162;-70
2022/01/05 02:57:03;;;;;;;3.53;1.40;;;;;;;;;;4962841;28;20113;-70
2022/01/05 02:59:29;;;;;;;2.35;1.30;;;;;;;;;;4966033;28;20287;-70
2022/01/05 03:01:55;;;;;;;2.65;1.42;;;;;;;;;;4959843;28;20442;-70
2022/01/05 03:04:22;;;;;;;2.88;1.30;;;;;;;;;;4963978;28;20094;-69
2022/01/05 03:06:48;;;;;;;2.33;1.40;;;;;;;;;;4965678;28;20031;-69
2022/01/05 03:09:14;;;;;;;3.17;1.40;;;;;;;;;;4961841;28;20043;-69
2022/01/05 03:11:40;;;;;;;2.42;1.40;;;;;;;;;;4967004;28;20578;-69
2022/01/05 03:14:06;;;;;;;3.60;1.80;;;;;;;;;;4959704;28;20680;-69
2022/01/05 03:16:32;;;;;;;4.30;1.77;;;;;;;;;;4964862;28;20074;-69
2022/01/05 03:18:58;;;;;;;4.03;2.00;;;;;;;;;;4961495;28;20019;-70
2022/01/05 03:21:24;;;;;;;2.85;1.50;;;;;;;;;;4955643;28;20053;-69
2022/01/05 03:23:50;;;;;;;3.33;1.50;;;;;;;;;;4963702;28;20129;-69
2022/01/05 03:26:15;;;;;;;2.85;1.50;;;;;;;;;;4959007;28;20450;-69
2022/01/05 03:28:41;;;;;;;2.28;1.20;;;;;;;;;;4966806;28;20037;-70
2022/01/05 03:31:07;;;;;;;2.42;1.35;;;;;;;;;;4963859;28;20027;-69
2022/01/05 03:33:33;;;;;;;2.88;1.60;;;;;;;;;;4962983;28;20465;-69
2022/01/05 03:35:59;;;;;;;4.30;1.83;;;;;;;;;;4962375;28;20097;-70
2022/01/05 03:38:28;;;;;;;3.30;1.55;;;;;;;;;;4962959;28;20471;-70
2022/01/05 03:40:54;;;;;;;3.03;1.60;;;;;;;;;;4962089;28;20031;-70
2022/01/05 03:43:20;;;;;;;4.43;1.80;;;;;;;;;;4961020;28;20031;-70
2022/01/05 03:45:47;;;;;;;5.95;1.50;;;;;;;;;;4959852;28;20049;-70
2022/01/05 03:48:14;;;;;;;2.42;1.40;;;;;;;;;;4958575;28;20034;-69
2022/01/05 03:50:40;;;;;;;3.72;1.30;;;;;;;;;;4958708;28;20117;-70
2022/01/05 03:53:08;;;;;;;2.50;1.13;;;;;;;;;;4961173;28;20050;-70
2022/01/05 03:55:34;;;;;;;2.22;1.17;;;;;;;;;;4958884;28;20037;-69
2022/01/05 03:58:00;;;;;;;3.15;1.20;;;;;;;;;;4967364;28;20022;-70
2022/01/05 04:00:29;;;;;;;3.38;1.45;;;;;;;;;;4963666;28;20078;-70
2022/01/05 04:02:55;;;;;;;2.83;1.50;;;;;;;;;;4962525;28;20783;-70
2022/01/05 04:05:21;;;;;;;2.42;1.30;;;;;;;;;;4964333;28;20106;-70
2022/01/05 04:07:47;;;;;;;3.83;1.35;;;;;;;;;;4961812;28;20052;-69
2022/01/05 04:10:13;;;;;;;3.45;1.33;;;;;;;;;;4960677;28;20432;-69
2022/01/05 04:12:39;;;;;;;2.67;1.20;;;;;;;;;;4956838;28;20038;-69
2022/01/05 04:15:05;;;;;;;3.35;1.30;;;;;;;;;;4960393;28;20038;-70
2022/01/05 04:17:31;;;;;;;4.10;1.58;;;;;;;;;;4958708;28;20034;-69
2022/01/05 04:19:57;;;;;;;3.20;1.60;;;;;;;;;;4959199;28;20133;-69
2022/01/05 04:22:23;;;;;;;4.85;1.58;;;;;;;;;;4961015;28;20126;-69
2022/01/05 04:24:49;;;;;;;6.68;1.70;;;;;;;;;;4962267;28;20027;-69
2022/01/05 04:27:15;;;;;;;3.50;1.70;;;;;;;;;;4960680;28;20466;-69
2022/01/05 04:29:42;;;;;;;3.33;1.40;;;;;;;;;;4960772;28;20030;-69
2022/01/05 04:32:08;;;;;;;2.38;1.17;;;;;;;;;;4957684;28;20026;-69
2022/01/05 04:34:34;;;;;;;2.03;1.10;;;;;;;;;;4963944;28;20035;-69
2022/01/05 04:37:00;;;;;;;1.30;1.00;;;;;;;;;;4960550;28;20050;-69
2022/01/05 04:39:26;;;;;;;2.40;1.30;;;;;;;;;;4959573;28;20030;-69
2022/01/05 04:41:52;;;;;;;1.77;1.20;;;;;;;;;;4962374;28;20050;-69
2022/01/05 04:44:18;;;;;;;2.72;1.52;;;;;;;;;;4963271;28;20390;-69
2022/01/05 04:46:44;;;;;;;4.15;1.77;;;;;;;;;;4962511;28;20035;-69
2022/01/05 04:49:10;;;;;;;3.63;1.50;;;;;;;;;;4957288;28;20106;-69
2022/01/05 04:51:36;;;;;;;5.47;1.63;;;;;;;;;;4964927;28;20033;-69
2022/01/05 04:54:02;;;;;;;3.05;1.38;;;;;;;;;;4957970;28;20394;-69
2022/01/05 04:56:28;;;;;;;3.78;1.73;;;;;;;;;;4955149;28;20026;-69
2022/01/05 04:58:56;;;;;;;3.85;2.00;;;;;;;;;;4963034;28;20031;-69
2022/01/05 05:01:22;;;;;;;4.47;1.75;;;;;;;;;;4963623;28;20339;-69
2022/01/05 05:03:48;;;;;;;3.38;1.40;;;;;;;;;;4964474;28;20336;-69
2022/01/05 05:06:14;;;;;;;5.70;1.67;;;;;;;;;;4963181;28;20122;-69
2022/01/05 05:08:40;;;;;;;2.65;1.63;;;;;;;;;;4965774;28;20109;-69
2022/01/05 05:11:06;;;;;;;5.05;1.85;;;;;;;;;;4967162;28;20031;-70
2022/01/05 05:13:32;;;;;;;3.75;1.38;;;;;;;;;;4961919;28;20091;-69
2022/01/05 05:15:58;;;;;;;5.03;1.65;;;;;;;;;;4960428;28;20110;-69
2022/01/05 05:18:24;;;;;;;5.82;1.77;;;;;;;;;;4959844;28;20484;-69
2022/01/05 05:20:50;;;;;;;3.08;1.60;;;;;;;;;;4967129;28;20450;-69
2022/01/05 05:23:17;;;;;;;5.03;2.28;;;;;;;;;;4955725;28;20735;-69
2022/01/05 05:25:43;;;;;;;4.88;1.50;;;;;;;;;;4968942;28;20035;-70
2022/01/05 05:28:09;;;;;;;3.35;1.67;;;;;;;;;;4964027;28;20093;-69
2022/01/05 05:30:36;;;;;;;5.13;1.70;;;;;;;;;;4954230;28;20058;-70
2022/01/05 05:33:02;;;;;;;4.90;1.65;;;;;;;;;;4962319;28;20034;-69
2022/01/05 05:35:28;;;;;;;4.90;1.75;;;;;;;;;;4965690;28;20038;-69
2022/01/05 05:37:55;;;;;;;4.43;1.83;;;;;;;;;;4957837;28;20471;-69
2022/01/05 05:40:21;;;;;;;6.28;1.88;;;;;;;;;;4962301;28;20039;-69
2022/01/05 05:42:47;;;;;;;7.93;2.00;;;2.60;99.90;;;;;;4967895;28;20027;-69
2022/01/05 05:45:13;;;;;;;9.13;2.17;;;2.60;99.90;;;;;;4967750;28;20070;-69
2022/01/05 05:47:38;;;;;;;13.80;3.20;;;2.60;99.90;;;;;;4964731;28;20380;-69
2022/01/05 05:50:05;;;;;;;13.40;2.40;;;2.50;99.90;;;;;;4965450;28;20173;-69
2022/01/05 05:52:30;;;;;;;8.50;2.30;;;2.50;99.90;;;;;;4967216;28;20372;-69
2022/01/05 05:54:56;;;;;;;6.07;2.20;;;2.50;99.90;;;;;;4962072;28;20027;-69
2022/01/05 05:57:22;;;;;;;4.07;2.00;;;2.50;99.90;;;;;;4958150;28;20037;-69
2022/01/05 05:59:47;;;;;;;7.13;2.17;;;2.50;99.90;;;;;;4963365;28;20105;-69
2022/01/05 06:02:13;;;;;;;9.48;2.17;;;2.40;99.90;;;;;;4955451;28;20401;-69
2022/01/05 06:04:38;;;;;;;11.32;2.97;;;2.40;99.90;;;;;;4963111;28;20035;-69
2022/01/05 06:07:04;;;;;;;6.55;2.53;;;2.30;99.90;;;;;;4967520;28;20046;-69
2022/01/05 06:09:30;;;;;;;8.02;2.58;;;2.40;99.90;;;;;;4963786;28;20058;-69
2022/01/05 06:11:55;;;;;;;8.52;3.58;;;2.30;99.90;;;;;;4969513;28;20372;-69
2022/01/05 06:14:21;;;;;;;15.65;4.30;;;2.30;99.90;;;;;;4967210;28;20035;-69
2022/01/05 06:16:47;;;;;;;11.32;3.75;;;2.30;99.90;;;;;;4963503;28;20039;-69
2022/01/05 06:19:12;;;;;;;10.93;3.90;;;2.30;99.90;;;;;;4969669;28;20090;-69
2022/01/05 06:21:38;;;;;;;12.82;3.80;;;2.30;99.90;;;;;;4964458;28;20122;-69
2022/01/05 06:24:04;;;;;;;8.48;3.75;;;2.30;99.90;;;;;;4959785;28;20035;-69
2022/01/05 06:26:30;;;;;;;13.18;3.88;;;;;;;;;;4963802;28;20035;-69
2022/01/05 06:28:55;;;;;;;12.20;4.28;;;2.30;99.90;;;;;;4965494;28;20121;-69
2022/01/05 06:31:21;;;;;;;10.82;3.72;;;2.20;99.90;;;;;;4956303;28;20058;-69
2022/01/05 06:33:47;;;;;;;10.68;4.22;;;2.20;99.90;;;;;;4961618;28;20153;-69
2022/01/05 06:36:12;;;;;;;13.02;3.97;;;2.20;99.90;;;;;;4966346;28;20668;-69
2022/01/05 06:38:38;;;;;;;10.57;3.67;;;2.20;99.90;;;;;;4959016;28;20023;-69
2022/01/05 06:41:03;;;;;;;11.98;3.88;;;2.20;99.90;;;;;;4960659;28;20114;-69
2022/01/05 06:43:30;;;;;;;12.43;4.40;;;2.10;99.90;;;;;;4962170;28;20123;-69
2022/01/05 06:45:57;;;;;;;14.13;4.53;;;2.10;99.90;;;;;;4975247;28;20093;-68
2022/01/05 06:48:22;;;;;;;14.18;4.70;;;2.00;99.90;;;;;;4968803;28;20066;-68
2022/01/05 06:50:48;;;;;;;11.10;4.85;;;2.00;99.90;;;;;;4964509;28;20031;-68
2022/01/05 06:53:14;;;;;;;12.23;4.38;;;1.90;99.90;;;;;;4959804;28;20448;-69
2022/01/05 06:55:40;;;;;;;18.88;5.13;;;1.90;99.90;;;;;;4961552;28;20475;-69
2022/01/05 06:58:06;;;;;;;11.98;4.95;;;;;;;;;;4958674;28;20090;-68
2022/01/05 07:00:32;;;;;;;10.93;4.30;;;1.90;99.90;;;;;;4613190;28;9999923;-69
2022/01/05 07:02:58;;;;;;;15.02;4.97;;;1.80;99.90;;;;;;4961121;28;20038;-68
2022/01/05 07:05:24;;;;;;;10.68;4.70;;;1.80;99.90;;;;;;4959912;28;20038;-69
2022/01/05 07:07:49;;;;;;;12.38;4.80;;;1.80;99.90;;;;;;4954762;28;20362;-69
2022/01/05 07:10:16;;;;;;;16.55;4.70;;;1.80;99.90;;;;;;4963733;28;20088;-69
2022/01/05 07:12:42;;;;;;;12.18;5.63;;;1.80;99.90;;;;;;4971429;28;20462;-69
2022/01/05 07:15:08;;;;;;;18.45;9.43;;;1.80;99.90;;;;;;4965358;28;20031;-69
2022/01/05 07:17:34;;;;;;;13.65;5.50;;;1.70;99.90;;;;;;4961875;28;20037;-69
2022/01/05 07:20:00;;;;;;;12.40;5.50;;;1.60;99.90;;;;;;4960637;28;20038;-68
2022/01/05 07:22:26;;;;;;;16.88;6.78;;;1.60;99.90;;;;;;4956897;28;20038;-69
2022/01/05 07:24:52;;;;;;;12.35;4.78;;;1.50;99.90;;;;;;4952465;28;20031;-70
2022/01/05 07:27:18;;;;;;;17.92;5.22;;;1.50;99.90;;;;;;4960821;28;20078;-69
2022/01/05 07:29:43;;;;;;;18.15;4.45;;;1.50;99.90;;;;;;4956095;28;20035;-69
2022/01/05 07:32:09;;;;;;;9.25;3.78;;;1.50;99.90;;;;;;4952351;28;20799;-69
2022/01/05 07:34:34;;;;;;;14.65;3.95;;;1.50;99.90;;;;;;4953957;28;20120;-69
2022/01/05 07:37:00;;;;;;;11.73;3.95;;;1.50;99.90;;;;;;4962265;28;20031;-69
2022/01/05 07:39:26;;;;;;;12.52;3.58;;;1.50;99.90;;;;;;4961678;28;20080;-69
2022/01/05 07:41:51;;;;;;;8.38;3.67;;;1.50;99.90;;;;;;4952486;28;20114;-70
2022/01/05 07:44:17;;;;;;;7.60;3.50;;;1.50;99.90;;;;;;4960914;28;20066;-69
2022/01/05 07:46:43;;;;;;;11.82;3.90;;;1.50;99.90;;;;;;4961104;28;20058;-69
2022/01/05 07:49:09;;;;;;;9.88;5.15;;;1.50;99.90;;;;;;4959101;28;20100;-69
2022/01/05 07:51:34;;;;;;;11.20;4.65;;;1.40;99.90;;;;;;4962514;28;20049;-69
2022/01/05 07:54:00;;;;;;;12.88;4.03;;;1.40;99.90;;;;;;4963191;28;20034;-69
2022/01/05 07:56:27;;;;;;;14.48;4.50;;;1.30;99.90;;;;;;4961839;28;20026;-69
2022/01/05 07:58:53;;;;;;;11.93;4.22;;;1.30;99.90;;;;;;4970928;28;21095;-69
2022/01/05 08:01:19;;;;;;;9.38;3.15;;;1.30;99.90;;;;;;4960277;28;20042;-69
2022/01/05 08:03:48;;;;;;;15.10;3.97;;;1.30;99.90;;;;;;4963549;28;20027;-68
2022/01/05 08:06:14;;;;;;;9.90;3.30;;;1.30;99.90;;;;;;4967505;28;20077;-69
2022/01/05 08:08:40;;;;;;;14.70;4.18;;;1.40;99.90;;;;;;4964477;28;20055;-69
2022/01/05 08:11:05;;;;;;;11.38;4.63;;;1.40;99.90;;;;;;4960333;28;20480;-69
2022/01/05 08:13:31;;;;;;;13.07;3.55;;;1.40;99.90;;;;;;4957784;28;20744;-69
2022/01/05 08:15:57;;;;;;;12.68;3.25;;;1.40;99.90;;;;;;4959791;28;20538;-69
2022/01/05 08:18:22;;;;;;;10.32;4.40;;;1.40;99.90;;;;;;4964723;28;20026;-69
2022/01/05 08:20:49;;;;;;;13.70;4.50;;;1.50;99.90;;;;;;4950591;28;20023;-69
2022/01/05 08:23:22;;;;;;;11.80;3.47;;;1.50;99.90;;;;;;4963181;28;20034;-69
2022/01/05 08:25:48;;;;;;;;;;;1.50;99.90;;;;;;4964669;28;20061;-69
2022/01/05 08:28:15;;;;;;;10.50;3.30;;;1.40;99.90;;;;;;4960339;28;19953;-69
2022/01/05 08:30:40;;;;;;;17.40;7.47;;;1.40;99.90;;;;;;4958321;28;20031;-69
2022/01/05 08:33:07;;;;;;;11.63;4.53;;;1.40;99.90;;;;;;4959710;28;20078;-69
2022/01/05 08:35:34;;;;;;;11.40;3.83;;;1.40;99.90;;;;;;4957475;28;20027;-69
2022/01/05 08:38:00;;;;;;;12.40;4.00;;;1.40;99.90;;;;;;4961980;28;20750;-70
2022/01/05 08:40:26;;;;;;;10.80;4.20;;;1.40;99.90;;;;;;4963224;28;20039;-70
2022/01/05 08:42:53;;;;;;;12.02;4.60;;;1.40;99.90;;;;;;4957438;28;20298;-70
2022/01/05 08:45:19;;;;;;;12.10;4.20;;;1.40;99.90;;;;;;4963291;28;20038;-72
2022/01/05 08:47:50;;;;;;;11.60;3.83;;;1.50;99.90;;;;;;4956283;28;20424;-72
2022/01/05 08:50:17;;;;;;;11.88;3.20;;;1.50;99.90;;;;;;4959515;28;20100;-72
2022/01/05 08:52:44;;;;;;;13.27;3.70;;;1.80;99.90;;;;;;4959226;28;20578;-71
2022/01/05 08:55:10;;;;;;;11.82;4.03;;;1.60;99.90;;;;;;4953100;28;20023;-71
2022/01/05 08:57:37;;;;;;;10.07;3.40;;;;;;;;;;4962440;28;20648;-72
2022/01/05 09:00:05;;;;;;;15.73;5.03;;;1.80;99.90;;;;;;4963138;28;20033;-71
2022/01/05 09:02:31;;;;;;;15.38;4.57;;;1.90;99.90;;;;;;4962651;28;20491;-72
2022/01/05 09:04:56;;;;;;;17.15;5.05;;;2.00;99.90;;;;;;4960551;28;20097;-72
2022/01/05 09:07:22;;;;;;;20.80;7.80;;;2.10;99.90;;;;;;4964335;28;20090;-72
2022/01/05 09:09:47;;;;;;;30.10;12.10;;;2.00;99.90;;;;;;4969885;28;20529;-72
2022/01/05 09:12:13;;;;;;;21.00;5.63;;;2.00;99.90;;;;;;4967381;28;20081;-72
2022/01/05 09:14:39;;;;;;;23.55;8.48;;;1.90;99.90;;;;;;4965724;28;20047;-72
2022/01/05 09:17:06;;;;;;;14.70;5.07;;;1.90;99.90;;;;;;4958588;28;20070;-72
2022/01/05 09:19:33;;;;;;;18.27;5.20;;;1.90;99.90;;;;;;4963904;28;20062;-71
2022/01/05 09:21:59;;;;;;;15.52;5.10;;;2.00;99.90;;;;;;4970382;28;20526;-72
2022/01/05 09:24:25;;;;;;;15.90;5.25;;;2.00;99.90;;;;;;4968424;28;20043;-71
2022/01/05 09:26:52;;;;;;;15.63;4.40;;;2.00;99.90;;;;;;4969984;28;20324;-72
2022/01/05 09:29:18;;;;;;;11.68;3.80;;;2.00;99.90;;;;;;4969265;28;20035;-72
2022/01/05 09:31:44;;;;;;;9.45;3.72;;;2.00;99.90;;;;;;4966642;28;20542;-72
2022/01/05 09:34:10;;;;;;;20.27;4.38;;;2.00;99.90;;;;;;4970213;28;20066;-73
2022/01/05 09:36:41;;;;;;;11.23;3.85;;;2.10;99.90;;;;;;4959613;28;20066;-72
2022/01/05 09:41:58;;;;;;;13.63;4.45;;;2.20;99.90;;;;;;4976026;28;20398;-72
2022/01/05 09:44:37;;;;;;;17.98;5.13;;;2.20;99.90;;;;;;4989856;28;20109;-72
2022/01/05 09:47:31;;;;;;;14.38;4.45;;;2.30;99.90;;;;;;4989960;28;20038;-72
2022/01/05 09:50:10;;;;;;;14.30;4.10;;;2.30;99.90;;;;;;4965787;28;20034;-72
2022/01/05 09:52:37;;;;;;;15.20;4.30;;;2.40;99.90;;;;;;4960943;28;20092;-72
2022/01/05 09:55:05;;;;;;;12.82;4.05;;;2.40;99.90;;;;;;4951077;28;20059;-72
2022/01/05 09:57:32;;;;;;;11.93;4.57;;;2.40;99.90;;;;;;4953629;28;20114;-72
2022/01/05 09:59:59;;;;;;;16.23;4.90;;;2.50;99.90;;;;;;4970503;28;20030;-72
2022/01/05 10:02:26;;;;;;;9.45;4.25;;;2.50;99.90;;;;;;4967523;28;20059;-72
2022/01/05 10:04:53;;;;;;;12.90;4.88;;;2.50;99.90;;;;;;4965213;28;20578;-72
2022/01/05 10:07:19;;;;;;;16.33;5.53;;;2.60;99.90;;;;;;4967499;28;20335;-73
2022/01/05 10:09:46;;;;;;;12.20;5.57;;;2.60;99.90;;;;;;4969745;28;20543;-72
2022/01/05 10:12:13;;;;;;;12.35;4.97;;;2.60;99.90;;;;;;4969711;28;20065;-72
2022/01/05 10:14:41;;;;;;;13.52;5.18;;;2.70;99.90;;;;;;4967857;28;20027;-72
2022/01/05 10:17:12;;;;;;;8.82;4.63;;;2.80;99.90;;;;;;4970074;28;20027;-72
2022/01/05 10:19:40;;;;;;;14.35;4.95;;;2.90;99.90;;;;;;4959860;28;20024;-71
2022/01/05 10:22:32;;;;;;;13.70;4.45;;;2.90;99.90;;;;;;4967629;28;20038;-73
2022/01/05 10:24:58;;;;;;;13.40;5.60;;;2.90;99.90;;;;;;4969121;28;20046;-72
2022/01/05 10:27:25;;;;;;;14.88;5.07;;;3.00;99.90;;;;;;4964423;28;20037;-72
2022/01/05 10:29:55;;;;;;;13.88;4.95;;;2.90;99.90;;;;;;4968827;28;20031;-73
2022/01/05 10:32:21;;;;;;;14.68;5.70;;;3.00;99.90;;;;;;4963773;28;20447;-72
2022/01/05 10:35:04;;;;;;;16.83;6.50;;;3.00;99.90;;;;;;4961926;28;20026;-73
2022/01/05 10:37:29;;;;;;;13.13;4.45;;;3.20;99.90;;;;;;4974232;28;20561;-72
2022/01/05 10:40:11;;;;;;;13.55;4.50;;;3.20;99.90;;;;;;4978523;28;20054;-72
2022/01/05 10:42:38;;;;;;;11.50;5.15;;;3.30;99.90;;;;;;4969059;28;20035;-72
2022/01/05 10:45:09;;;;;;;16.17;5.68;;;3.30;99.90;;;;;;4969077;28;20031;-72
2022/01/05 10:47:37;;;;;;;22.05;8.45;;;3.30;99.90;;;;;;4968491;28;20511;-72
2022/01/05 10:50:05;;;;;;;15.05;5.82;;;3.30;99.90;;;;;;4964022;28;20031;-72
2022/01/05 10:52:34;;;;;;;13.18;5.38;;;3.30;99.90;;;;;;4949502;28;20384;-72
2022/01/05 10:55:10;;;;;;;11.43;5.68;;;3.20;99.90;;;;;;4949514;29;20035;-72
2022/01/05 10:57:36;;;;;;;15.30;6.00;;;3.20;99.90;;;;;;4964484;28;20066;-71
2022/01/05 11:00:07;;;;;;;14.30;5.15;;;3.20;99.90;;;;;;4966914;28;20063;-72
2022/01/05 11:02:35;;;;;;;14.00;5.63;;;3.20;99.90;;;;;;4957574;28;20062;-71
2022/01/05 11:05:06;;;;;;;9.95;5.45;;;;;;;;;;4949373;28;20035;-72
2022/01/05 11:07:34;;;;;;;11.77;5.43;;;3.20;99.90;;;;;;4964063;28;20151;-71
2022/01/05 11:10:05;;;;;;;15.07;5.57;;;3.20;99.90;;;;;;4956677;28;20046;-72
2022/01/05 11:12:36;;;;;;;13.30;5.43;;;3.20;99.90;;;;;;4968119;28;20518;-72
2022/01/05 11:15:17;;;;;;;15.10;5.78;;;3.20;99.90;;;;;;4966951;28;20042;-72
2022/01/05 11:18:09;;;;;;;13.82;5.93;;;3.10;99.90;;;;;;4961835;28;20238;-71
2022/01/05 11:20:51;;;;;;;13.00;5.47;;;3.20;99.90;;;;;;4969071;28;20043;-72
2022/01/05 11:23:19;;;;;;;14.70;5.97;;;3.20;99.90;;;;;;4969337;28;20059;-72
2022/01/05 11:25:46;;;;;;;9.70;5.15;;;3.20;99.90;;;;;;4968597;28;20707;-72
2022/01/05 11:28:14;;;;;;;15.15;5.60;;;3.20;99.90;;;;;;4965542;28;20015;-72
2022/01/05 11:30:42;;;;;;;14.55;6.15;;;3.30;99.90;;;;;;4964094;28;20031;-72
2022/01/05 11:33:08;;;;;;;14.15;5.18;;;3.30;99.90;;;;;;4965448;28;20061;-72
2022/01/05 11:35:35;;;;;;;11.52;5.03;;;3.30;99.90;;;;;;4971644;28;20031;-72
2022/01/05 11:38:02;;;;;;;12.70;5.70;;;3.30;99.90;;;;;;4967852;28;20031;-72
2022/01/05 11:40:29;;;;;;;12.77;5.20;;;3.30;99.90;;;;;;4975197;28;20029;-73
2022/01/05 11:43:02;;;;;;;11.98;5.20;;;3.30;99.90;;;;;;4963948;28;20247;-72
2022/01/05 11:45:47;;;;;;;10.07;4.18;;;3.20;99.90;;;;;;4966434;28;20117;-72
2022/01/05 11:48:20;;;;;;;18.25;6.13;;;3.20;99.90;;;;;;4967780;28;20495;-71
2022/01/05 11:50:52;;;;;;;9.50;5.20;;;3.20;99.90;;;;;;4967158;28;20038;-73
2022/01/05 11:53:31;;;;;;;11.98;5.38;;;3.10;99.90;;;;;;4967160;28;20243;-72
2022/01/05 11:56:01;;;;;;;13.48;6.07;;;3.10;99.90;;;;;;4968106;28;20031;-72
2022/01/05 11:58:29;;;;;;;11.73;5.72;;;3.10;99.90;;;;;;4956888;28;20171;-72
2022/01/05 12:01:13;;;;;;;11.88;5.57;;;3.00;99.90;;;;;;4948711;28;20031;-73
2022/01/05 12:03:51;;;;;;;13.52;5.68;;;3.00;99.90;;;;;;4964939;28;20046;-73
2022/01/05 12:06:18;;;;;;;17.83;6.00;;;2.90;99.90;;;;;;4951216;28;20050;-72
2022/01/05 12:08:49;;;;;;;11.68;5.80;;;2.80;99.90;;;;;;4948289;28;20082;-71
2022/01/05 12:11:29;;;;;;;13.85;5.80;;;2.80;99.90;;;;;;4951568;28;20031;-72
2022/01/05 12:13:56;;;;;;;10.20;5.80;;;2.80;99.90;;;;;;4950120;28;20045;-73
2022/01/05 12:16:23;;;;;;;13.25;5.80;;;2.70;99.90;;;;;;4960473;28;20035;-72
2022/01/05 12:19:14;;;;;;;11.20;5.35;;;2.80;99.90;;;;;;4960026;28;20034;-72
2022/01/05 12:21:48;;;;;;;13.60;5.32;;;2.70;99.90;;;;;;4955118;28;20042;-72
2022/01/05 12:24:15;;;;;;;8.63;5.70;;;2.80;99.90;;;;;;4958417;28;20039;-72
2022/01/05 12:26:41;;;;;;;10.93;5.82;;;2.70;99.90;;;;;;4281009;28;10000876;-72
2022/01/05 12:29:07;;;;;;;11.63;5.70;;;2.70;99.90;;;;;;4972962;28;20077;-72
2022/01/05 12:31:47;;;;;;;15.20;7.45;;;2.80;99.90;;;;;;4971662;28;20072;-72
2022/01/05 12:34:15;;;;;;;11.38;5.88;;;2.80;99.90;;;;;;4971894;28;20061;-72
2022/01/05 12:36:42;;;;;;;13.43;5.50;;;2.80;99.90;;;;;;4978881;28;20034;-72
2022/01/05 12:39:10;;;;;;;14.80;6.18;;;2.80;99.90;;;;;;4976592;28;20037;-72
2022/01/05 12:41:38;;;;;;;10.30;6.00;;;2.80;99.90;;;;;;4974283;28;20037;-72
2022/01/05 12:44:26;;;;;;;14.05;6.32;;;2.80;99.90;;;;;;4979010;28;20715;-72
2022/01/05 12:46:54;;;;;;;16.33;6.05;;;2.80;99.90;;;;;;4972780;28;20042;-72
2022/01/05 12:49:23;;;;;;;12.05;5.18;;;2.80;99.90;;;;;;4966257;28;20076;-72
2022/01/05 12:52:14;;;;;;;10.95;4.68;;;2.90;99.90;;;;;;4973825;28;20041;-72
2022/01/05 12:54:47;;;;;;;9.77;6.20;;;2.90;99.90;;;;;;4963435;28;20498;-72
2022/01/05 12:57:16;;;;;;;6.82;4.00;;;2.90;99.90;;;;;;4969692;28;20376;-72
2022/01/05 12:59:49;;;;;;;8.80;3.70;;;2.90;99.90;;;;;;4963612;28;20470;-72
2022/01/05 13:02:23;;;;;;;8.82;3.92;;;2.90;99.90;;;;;;4963796;28;20034;-72
2022/01/05 13:04:49;;;;;;;8.82;4.03;;;2.90;99.90;;;;;;4962946;28;20054;-72
2022/01/05 13:07:17;;;;;;;7.78;3.95;;;2.90;99.90;;;;;;4960242;28;20037;-73
2022/01/05 13:09:51;;;;;;;9.52;4.40;;;2.90;99.90;;;;;;4953923;28;20038;-72
2022/01/05 13:12:19;;;;;;;9.23;5.60;;;2.90;99.90;;;;;;4959942;28;20050;-72
2022/01/05 13:15:05;;;;;;;8.38;4.25;;;2.90;99.90;;;;;;4961441;28;20525;-72
2022/01/05 13:17:36;;;;;;;6.82;4.22;;;2.90;99.90;;;;;;4964091;28;20027;-72
2022/01/05 13:20:08;;;;;;;6.93;3.63;;;2.90;99.90;;;;;;4957047;28;20035;-72